createdAt,value
2023-04-13T00:04:37.710Z,11.79
2023-04-13T00:28:59.707Z,9.24
2023-04-13T00:34:15.964Z,9.01
2023-04-13T00:40:21.590Z,8.80
2023-04-13T00:45:45.110Z,8.61
2023-04-13T00:51:16.718Z,8.47
2023-04-13T00:56:58.140Z,8.35
2023-04-13T01:02:08.017Z,9.40
2023-04-13T01:08:06.401Z,12.06
2023-04-13T01:13:21.846Z,12.68
2023-04-13T01:24:35.149Z,10.55
2023-04-13T01:30:51.141Z,9.94
2023-04-13T01:36:03.018Z,9.47
2023-04-13T01:49:04.247Z,8.75
2023-04-13T01:54:26.023Z,8.51
2023-04-13T01:59:32.458Z,8.33
2023-04-13T02:43:00.699Z,11.35
2023-04-13T02:48:27.869Z,10.32
2023-04-13T02:53:49.575Z,9.64
2023-04-13T03:05:13.585Z,8.67
2023-04-13T03:10:21.495Z,8.33
2023-04-13T03:21:48.863Z,7.85
2023-04-13T03:27:27.539Z,7.74
2023-04-13T03:45:24.149Z,11.97
2023-04-13T03:50:28.855Z,10.64
2023-04-13T03:55:32.533Z,9.85
2023-04-13T04:00:41.479Z,9.26
2023-04-13T04:05:48.698Z,8.75
2023-04-13T04:10:52.253Z,8.35
2023-04-13T04:15:57.108Z,8.10
2023-04-13T04:21:03.144Z,7.90
2023-04-13T04:26:29.299Z,7.74
2023-04-13T04:32:28.591Z,7.59
2023-04-13T04:42:54.602Z,8.48
2023-04-13T05:04:50.034Z,10.89
2023-04-13T05:09:57.515Z,10.32
2023-04-13T05:15:45.620Z,9.87
2023-04-13T05:21:31.239Z,9.45
2023-04-13T05:26:44.121Z,9.22
2023-04-13T05:31:50.584Z,9.10
2023-04-13T05:37:21.963Z,9.03
2023-04-13T05:48:12.879Z,9.07
2023-04-13T05:53:19.168Z,10.02
2023-04-13T05:58:28.674Z,12.71
2023-04-13T06:03:52.823Z,13.72
2023-04-13T06:08:58.856Z,12.67
2023-04-13T06:14:03.539Z,12.10
2023-04-13T06:19:07.993Z,11.74
2023-04-13T06:24:12.303Z,11.46
2023-04-13T06:29:49.023Z,11.20
2023-04-13T06:36:04.912Z,11.00
2023-04-13T06:43:19.030Z,10.86
2023-04-13T06:54:10.165Z,10.86
2023-04-13T06:59:17.365Z,10.88
2023-04-13T07:04:39.670Z,10.93
2023-04-13T07:09:44.470Z,11.03
2023-04-13T07:14:49.726Z,11.12
2023-04-13T07:19:55.887Z,11.20
2023-04-13T07:25:00.203Z,11.30
2023-04-13T07:30:09.512Z,11.43
2023-04-13T07:35:17.884Z,11.56
2023-04-13T07:40:22.210Z,11.68
2023-04-13T07:45:36.952Z,11.85
2023-04-13T07:50:44.648Z,12.01
2023-04-13T07:55:52.119Z,12.17
2023-04-13T08:01:07.563Z,12.32
2023-04-13T08:06:12.143Z,12.45
2023-04-13T08:11:17.191Z,12.58
2023-04-13T08:16:22.391Z,12.68
2023-04-13T08:21:26.848Z,12.80
2023-04-13T08:26:31.129Z,12.95
2023-04-13T08:31:36.248Z,13.10
2023-04-13T08:36:41.698Z,13.27
2023-04-13T08:41:48.021Z,13.43
2023-04-13T08:46:53.867Z,13.58
2023-04-13T08:52:06.915Z,13.75
2023-04-13T08:57:12.977Z,13.90
2023-04-13T09:07:57.077Z,14.25
2023-04-13T09:13:01.987Z,14.41
2023-04-13T09:18:11.334Z,14.55
2023-04-13T09:23:22.816Z,14.72
2023-04-13T09:28:27.285Z,14.87
2023-04-13T09:33:36.308Z,14.98
2023-04-13T09:42:56.218Z,15.24
2023-04-13T09:48:03.891Z,15.39
2023-04-13T09:53:11.080Z,15.59
2023-04-13T09:58:18.391Z,15.80
2023-04-13T10:03:23.929Z,16.06
2023-04-13T10:08:37.424Z,16.63
2023-04-13T10:14:01.695Z,17.32
2023-04-13T10:19:09.399Z,17.99
2023-04-13T10:24:13.917Z,18.49
2023-04-13T10:29:30.091Z,18.72
2023-04-13T10:34:36.243Z,18.72
2023-04-13T10:39:39.813Z,18.71
2023-04-13T10:44:51.645Z,18.68
2023-04-13T10:49:54.953Z,18.63
2023-04-13T10:54:58.874Z,18.59
2023-04-13T11:00:04.559Z,18.55
2023-04-13T11:05:08.314Z,18.50
2023-04-13T11:10:12.963Z,18.39
2023-04-13T11:15:24.875Z,18.41
2023-04-13T11:20:33.324Z,18.59
2023-04-13T11:25:36.558Z,18.67
2023-04-13T11:30:39.599Z,18.79
2023-04-13T11:35:49.939Z,19.00
2023-04-13T11:46:31.575Z,19.72
2023-04-13T11:51:35.558Z,20.19
2023-04-13T11:56:38.899Z,20.51
2023-04-13T12:01:49.977Z,20.73
2023-04-13T12:06:56.468Z,20.90
2023-04-13T12:17:37.590Z,21.24
2023-04-13T12:22:51.729Z,21.46
2023-04-13T12:28:00.136Z,21.80
2023-04-13T12:33:03.883Z,22.07
2023-04-13T12:43:03.663Z,22.32
2023-04-13T12:48:08.773Z,22.51
2023-04-13T12:53:14.708Z,22.71
2023-04-13T12:58:17.997Z,23.00
2023-04-13T13:03:21.522Z,23.03
2023-04-13T13:08:24.676Z,22.97
2023-04-13T13:13:27.813Z,22.99
2023-04-13T13:18:42.763Z,22.81
2023-04-13T13:23:52.578Z,22.46
2023-04-13T13:28:55.775Z,22.08
2023-04-13T13:33:59.607Z,21.66
2023-04-13T13:39:09.146Z,21.29
2023-04-13T13:44:16.651Z,20.98
2023-04-13T13:49:20.714Z,20.68
2023-04-13T13:54:43.022Z,20.43
2023-04-13T13:59:49.286Z,20.20
2023-04-13T14:05:04.220Z,19.99
2023-04-13T14:10:12.160Z,19.78
2023-04-13T14:15:16.178Z,19.64
2023-04-13T14:20:20.305Z,19.55
2023-04-13T14:25:24.343Z,19.44
2023-04-13T14:30:28.721Z,19.39
2023-04-13T14:35:32.876Z,19.36
2023-04-13T14:40:37.250Z,19.30
2023-04-13T14:45:41.052Z,19.20
2023-04-13T14:50:45.339Z,19.08
2023-04-13T14:55:49.673Z,18.95
2023-04-13T15:00:54.451Z,18.83
2023-04-13T15:11:23.185Z,18.61
2023-04-13T15:16:29.602Z,18.50
2023-04-13T15:21:36.532Z,18.42
2023-04-13T15:26:41.888Z,18.35
2023-04-13T15:31:46.931Z,18.29
2023-04-13T15:36:50.781Z,18.24
2023-04-13T15:41:55.426Z,18.16
2023-04-13T15:47:03.288Z,18.11
2023-04-13T15:52:10.447Z,18.05
2023-04-13T15:57:16.605Z,18.00
2023-04-13T16:02:21.245Z,17.88
2023-04-13T16:07:28.295Z,17.68
2023-04-13T16:13:02.336Z,17.48
2023-04-13T16:18:20.235Z,17.31
2023-04-13T16:23:32.883Z,17.17
2023-04-13T16:28:40.689Z,17.06
2023-04-13T16:33:51.416Z,16.95
2023-04-13T16:42:59.416Z,16.76
2023-04-13T16:48:02.965Z,16.64
2023-04-13T16:53:06.637Z,16.48
2023-04-13T16:58:12.101Z,16.32
2023-04-13T17:03:15.939Z,16.19
2023-04-13T17:08:19.280Z,16.09
2023-04-13T17:13:22.848Z,16.01
2023-04-13T17:18:26.167Z,15.94
2023-04-13T17:23:29.597Z,15.89
2023-04-13T17:28:32.928Z,15.86
2023-04-13T17:33:36.296Z,15.83
2023-04-13T17:38:39.597Z,15.80
2023-04-13T17:43:42.832Z,15.76
2023-04-13T17:48:46.340Z,15.71
2023-04-13T17:53:50.010Z,15.68
2023-04-13T17:58:53.429Z,15.61
2023-04-13T18:03:59.612Z,15.54
2023-04-13T18:09:06.330Z,15.45
2023-04-13T18:14:12.422Z,15.39
2023-04-13T18:19:16.506Z,15.33
2023-04-13T18:24:20.060Z,15.25
2023-04-13T18:29:23.333Z,15.17
2023-04-13T18:34:29.923Z,15.06
2023-04-13T18:45:10.811Z,14.82
2023-04-13T18:50:14.127Z,14.73
2023-04-13T18:55:17.497Z,14.64
2023-04-13T19:00:21.202Z,14.50
2023-04-13T19:05:24.716Z,14.40
2023-04-13T19:10:28.573Z,14.39
2023-04-13T19:15:32.140Z,14.37
2023-04-13T19:20:35.679Z,14.31
2023-04-13T19:25:39.489Z,14.29
2023-04-13T19:30:42.964Z,14.26
2023-04-13T19:35:46.379Z,14.21
2023-04-13T19:40:49.712Z,14.15
2023-04-13T19:45:54.167Z,14.09
2023-04-13T19:50:57.489Z,14.07
2023-04-13T19:56:01.643Z,14.07
2023-04-13T20:01:07.868Z,14.10
2023-04-13T20:06:12.036Z,14.09
2023-04-13T20:11:15.522Z,14.07
2023-04-13T20:16:18.881Z,14.06
2023-04-13T20:21:22.150Z,14.02
2023-04-13T20:26:28.159Z,14.01
2023-04-13T20:31:33.256Z,13.96
2023-04-13T20:36:36.784Z,13.93
2023-04-13T20:41:40.157Z,13.91
2023-04-13T20:46:49.541Z,13.88
2023-04-13T20:51:57.373Z,13.82
2023-04-13T20:57:01.755Z,13.79
2023-04-13T21:02:05.672Z,13.76
2023-04-13T21:07:11.458Z,13.73
2023-04-13T21:12:14.813Z,14.38
2023-04-13T21:17:18.397Z,16.71
2023-04-13T21:22:22.104Z,17.55
2023-04-13T21:27:25.700Z,16.38
2023-04-13T21:32:29.063Z,15.68
2023-04-13T21:37:32.557Z,15.25
2023-04-13T21:42:37.384Z,14.89
2023-04-13T21:47:40.996Z,14.58
2023-04-13T21:52:44.355Z,14.33
2023-04-13T21:57:48.311Z,14.12
2023-04-13T22:03:18.857Z,13.94
2023-04-13T22:08:22.357Z,13.81
2023-04-13T22:13:26.262Z,13.71
2023-04-13T22:24:22.540Z,13.55
2023-04-13T22:29:26.099Z,14.27
2023-04-13T22:34:29.493Z,16.55
2023-04-13T22:39:33.179Z,17.26
2023-04-13T22:44:36.795Z,16.10
2023-04-13T22:49:40.100Z,15.37
2023-04-13T22:54:43.453Z,14.91
2023-04-13T22:59:47.120Z,14.55
2023-04-13T23:04:50.916Z,14.26
2023-04-13T23:09:54.386Z,14.00
2023-04-13T23:14:57.740Z,13.80
2023-04-13T23:20:01.219Z,14.34
2023-04-13T23:25:05.481Z,16.65
2023-04-13T23:30:09.372Z,17.37
2023-04-13T23:35:12.839Z,16.14
2023-04-13T23:40:16.538Z,15.37
2023-04-13T23:45:19.859Z,14.84
2023-04-13T23:50:23.236Z,14.44
2023-04-13T23:55:27.665Z,14.12
